createdAt,value
2017-07-23T00:00:36.740Z,16.90
2017-07-23T00:03:04.150Z,16.90
2017-07-23T00:05:31.574Z,16.90
2017-07-23T00:07:58.981Z,16.90
2017-07-23T00:10:26.394Z,16.90
2017-07-23T00:12:53.814Z,17.00
2017-07-23T00:15:21.226Z,17.00
2017-07-23T00:17:49.397Z,16.90
2017-07-23T00:20:16.818Z,16.90
2017-07-23T00:22:44.242Z,16.90
2017-07-23T00:25:12.424Z,16.90
2017-07-23T00:27:39.821Z,16.90
2017-07-23T00:30:07.239Z,16.80
2017-07-23T00:32:34.650Z,16.80
2017-07-23T00:35:02.063Z,16.80
2017-07-23T00:37:29.521Z,16.80
2017-07-23T00:39:57.818Z,16.80
2017-07-23T00:42:25.234Z,16.80
2017-07-23T00:44:52.646Z,16.80
2017-07-23T00:47:20.066Z,16.80
2017-07-23T00:49:47.523Z,16.80
2017-07-23T00:52:14.926Z,16.80
2017-07-23T00:54:42.333Z,16.70
2017-07-23T00:57:09.750Z,16.70
2017-07-23T00:59:37.925Z,16.70
2017-07-23T01:02:06.548Z,16.60
2017-07-23T01:04:33.938Z,16.60
2017-07-23T01:07:01.658Z,16.60
2017-07-23T01:09:29.958Z,16.60
2017-07-23T01:11:57.382Z,16.60
2017-07-23T01:14:24.798Z,16.60
2017-07-23T01:16:52.982Z,16.60
2017-07-23T01:19:21.408Z,16.60
2017-07-23T01:21:48.818Z,16.60
2017-07-23T01:24:16.233Z,16.60
2017-07-23T01:26:43.650Z,16.70
2017-07-23T01:29:11.065Z,16.70
2017-07-23T01:31:38.483Z,16.60
2017-07-23T01:34:05.893Z,16.70
2017-07-23T01:36:33.321Z,16.70
2017-07-23T01:39:00.730Z,16.70
2017-07-23T01:41:28.414Z,16.80
2017-07-23T01:43:55.833Z,16.70
2017-07-23T01:46:24.138Z,16.70
2017-07-23T01:48:51.558Z,16.70
2017-07-23T01:51:18.974Z,16.70
2017-07-23T01:53:46.402Z,16.70
2017-07-23T01:56:13.804Z,16.70
2017-07-23T01:58:41.222Z,16.60
2017-07-23T02:01:08.637Z,16.50
2017-07-23T02:03:36.076Z,16.50
2017-07-23T02:06:03.466Z,16.50
2017-07-23T02:08:31.499Z,16.40
2017-07-23T02:10:59.762Z,16.40
2017-07-23T02:13:27.178Z,16.30
2017-07-23T02:15:54.589Z,16.20
2017-07-23T02:18:22.015Z,16.30
2017-07-23T02:20:49.421Z,16.10
2017-07-23T02:23:16.846Z,16.10
2017-07-23T02:25:44.267Z,16.00
2017-07-23T02:28:11.684Z,16.10
2017-07-23T02:30:39.098Z,16.10
2017-07-23T02:33:07.475Z,16.10
2017-07-23T02:35:34.898Z,16.20
2017-07-23T02:38:02.306Z,16.10
2017-07-23T02:40:30.242Z,16.00
2017-07-23T02:42:58.302Z,16.00
2017-07-23T02:45:25.721Z,16.00
2017-07-23T02:47:53.903Z,15.90
2017-07-23T02:50:22.128Z,15.90
2017-07-23T02:52:49.537Z,15.80
2017-07-23T02:55:16.950Z,15.90
2017-07-23T02:57:44.354Z,15.90
2017-07-23T03:00:13.094Z,15.90
2017-07-23T03:02:40.509Z,15.90
2017-07-23T03:05:07.922Z,15.90
2017-07-23T03:07:35.334Z,15.80
2017-07-23T03:10:02.765Z,15.80
2017-07-23T03:12:30.170Z,15.80
2017-07-23T03:14:57.590Z,15.80
2017-07-23T03:17:25.624Z,15.80
2017-07-23T03:19:53.025Z,15.80
2017-07-23T03:22:20.442Z,15.70
2017-07-23T03:24:47.851Z,15.80
2017-07-23T03:27:15.274Z,15.80
2017-07-23T03:29:43.687Z,15.80
2017-07-23T03:32:11.726Z,15.80
2017-07-23T03:34:39.905Z,15.90
2017-07-23T03:37:07.322Z,15.80
2017-07-23T03:39:34.735Z,15.80
2017-07-23T03:42:02.154Z,15.80
2017-07-23T03:44:29.577Z,15.70
2017-07-23T03:46:56.986Z,15.70
2017-07-23T03:49:24.394Z,15.70
2017-07-23T03:51:51.827Z,15.60
2017-07-23T03:54:19.238Z,15.60
2017-07-23T03:56:48.053Z,15.50
2017-07-23T03:59:15.471Z,15.50
2017-07-23T04:01:42.890Z,15.50
2017-07-23T04:04:10.302Z,15.50
2017-07-23T04:06:38.482Z,15.50
2017-07-23T04:09:05.894Z,15.40
2017-07-23T04:11:34.426Z,15.50
2017-07-23T04:14:01.842Z,15.50
2017-07-23T04:16:29.259Z,15.50
2017-07-23T04:18:56.677Z,15.50
2017-07-23T04:21:24.085Z,15.60
2017-07-23T04:23:51.502Z,15.60
2017-07-23T04:26:18.917Z,15.70
2017-07-23T04:28:46.339Z,15.70
2017-07-23T04:31:13.745Z,15.50
2017-07-23T04:33:41.931Z,15.40
2017-07-23T04:36:09.338Z,15.40
2017-07-23T04:38:36.758Z,15.40
2017-07-23T04:41:05.062Z,15.50
2017-07-23T04:43:33.030Z,15.60
2017-07-23T04:46:00.433Z,15.70
2017-07-23T04:48:27.846Z,15.80
2017-07-23T04:50:55.257Z,15.90
2017-07-23T04:53:23.434Z,16.20
2017-07-23T04:55:51.613Z,16.40
2017-07-23T04:58:19.029Z,16.40
2017-07-23T05:00:47.588Z,16.50
2017-07-23T05:03:14.997Z,16.70
2017-07-23T05:05:43.169Z,16.90
2017-07-23T05:08:10.877Z,16.90
2017-07-23T05:10:38.310Z,17.00
2017-07-23T05:13:05.722Z,16.90
2017-07-23T05:15:33.144Z,17.00
2017-07-23T05:18:01.217Z,17.10
2017-07-23T05:20:28.628Z,17.20
2017-07-23T05:22:57.278Z,17.30
2017-07-23T05:25:24.704Z,17.50
2017-07-23T05:27:52.765Z,17.60
2017-07-23T05:30:20.443Z,17.60
2017-07-23T05:32:47.861Z,17.70
2017-07-23T05:35:16.037Z,17.80
2017-07-23T05:37:44.222Z,17.80
2017-07-23T05:40:11.635Z,17.70
2017-07-23T05:42:39.050Z,17.90
2017-07-23T05:45:06.466Z,18.00
2017-07-23T05:47:33.874Z,18.10
2017-07-23T05:50:01.283Z,18.30
2017-07-23T05:52:29.466Z,18.60
2017-07-23T05:54:57.649Z,18.70
2017-07-23T05:57:25.878Z,18.90
2017-07-23T05:59:53.810Z,18.90
2017-07-23T06:02:21.238Z,19.20
2017-07-23T06:04:49.413Z,19.70
2017-07-23T06:07:18.726Z,19.80
2017-07-23T06:09:46.142Z,19.80
2017-07-23T06:12:13.563Z,19.60
2017-07-23T06:14:41.374Z,19.90
2017-07-23T06:17:09.088Z,20.30
2017-07-23T06:19:36.502Z,20.30
2017-07-23T06:22:04.677Z,20.60
2017-07-23T06:24:32.861Z,20.80
2017-07-23T06:27:00.794Z,20.80
2017-07-23T06:29:28.220Z,21.00
2017-07-23T06:31:55.627Z,21.20
2017-07-23T06:34:23.801Z,20.90
2017-07-23T06:36:51.981Z,20.80
2017-07-23T06:39:20.678Z,20.90
2017-07-23T06:41:48.748Z,20.90
2017-07-23T06:44:16.939Z,21.90
2017-07-23T06:46:44.337Z,21.90
2017-07-23T06:49:12.658Z,22.40
2017-07-23T06:51:40.073Z,22.70
2017-07-23T06:54:07.482Z,22.60
2017-07-23T06:56:34.890Z,22.10
2017-07-23T06:59:02.312Z,21.80
2017-07-23T07:01:29.964Z,21.50
2017-07-23T07:03:57.350Z,21.30
2017-07-23T07:06:24.769Z,21.20
2017-07-23T07:08:52.718Z,21.60
2017-07-23T07:11:20.138Z,21.70
2017-07-23T07:13:47.545Z,21.80
2017-07-23T07:16:15.018Z,22.10
2017-07-23T07:18:42.425Z,22.50
2017-07-23T07:21:10.605Z,23.40
2017-07-23T07:23:38.817Z,23.30
2017-07-23T07:26:06.279Z,23.20
2017-07-23T07:28:33.742Z,23.10
2017-07-23T07:31:01.192Z,22.30
2017-07-23T07:33:28.597Z,21.50
2017-07-23T07:35:57.417Z,21.40
2017-07-23T07:38:24.895Z,21.30
2017-07-23T07:40:52.330Z,21.20
2017-07-23T07:43:19.743Z,21.30
2017-07-23T07:45:47.982Z,21.60
2017-07-23T07:48:15.405Z,22.20
2017-07-23T07:50:43.721Z,23.20
2017-07-23T07:53:11.913Z,23.20
2017-07-23T07:55:39.326Z,23.30
2017-07-23T07:58:06.803Z,23.30
2017-07-23T08:00:34.217Z,23.10
2017-07-23T08:03:02.401Z,23.70
2017-07-23T08:05:29.810Z,23.60
2017-07-23T08:07:57.899Z,23.90
2017-07-23T08:10:25.316Z,23.30
2017-07-23T08:12:53.392Z,23.10
2017-07-23T08:15:20.805Z,23.00
2017-07-23T08:17:48.997Z,22.30
2017-07-23T08:20:16.401Z,22.30
2017-07-23T08:22:43.817Z,22.60
2017-07-23T08:25:11.230Z,22.70
2017-07-23T08:27:38.642Z,22.50
2017-07-23T08:30:06.046Z,22.50
2017-07-23T08:32:34.221Z,23.20
2017-07-23T08:35:02.812Z,23.50
2017-07-23T08:37:30.990Z,23.80
2017-07-23T08:39:59.173Z,24.30
2017-07-23T08:42:26.584Z,24.30
2017-07-23T08:44:53.999Z,24.60
2017-07-23T08:47:21.406Z,24.30
2017-07-23T08:49:49.813Z,23.70
2017-07-23T08:52:18.025Z,22.50
2017-07-23T08:54:45.434Z,22.50
2017-07-23T08:57:13.655Z,22.80
2017-07-23T08:59:41.082Z,22.70
2017-07-23T09:02:08.568Z,23.10
2017-07-23T09:04:36.017Z,23.40
2017-07-23T09:07:03.429Z,23.90
2017-07-23T09:09:31.610Z,24.10
2017-07-23T09:11:59.781Z,25.30
2017-07-23T09:14:27.967Z,25.70
2017-07-23T09:16:56.146Z,25.10
2017-07-23T09:19:23.558Z,25.10
2017-07-23T09:21:52.138Z,24.60
2017-07-23T09:24:19.545Z,24.30
2017-07-23T09:26:46.962Z,23.50
2017-07-23T09:29:14.374Z,22.90
2017-07-23T09:31:41.806Z,22.90
2017-07-23T09:34:09.977Z,22.00
2017-07-23T09:36:38.159Z,21.80
2017-07-23T09:39:05.573Z,21.70
2017-07-23T09:41:32.995Z,21.70
2017-07-23T09:44:00.456Z,21.90
2017-07-23T09:46:27.870Z,22.20
2017-07-23T09:48:56.041Z,22.60
2017-07-23T09:51:24.230Z,22.40
2017-07-23T09:53:52.429Z,22.90
2017-07-23T09:56:19.858Z,22.90
2017-07-23T09:58:47.269Z,23.60
2017-07-23T10:01:14.702Z,24.00
2017-07-23T10:03:42.113Z,24.90
2017-07-23T10:06:10.306Z,26.00
2017-07-23T10:08:38.490Z,26.40
2017-07-23T10:11:05.902Z,26.30
2017-07-23T10:13:33.322Z,26.40
2017-07-23T10:16:00.726Z,26.40
2017-07-23T10:18:28.917Z,23.90
2017-07-23T10:20:58.065Z,23.50
2017-07-23T10:23:25.485Z,23.50
2017-07-23T10:25:52.906Z,23.20
2017-07-23T10:28:21.096Z,24.10
2017-07-23T10:30:49.266Z,23.50
2017-07-23T10:33:17.454Z,23.90
2017-07-23T10:35:44.862Z,23.80
2017-07-23T10:38:12.282Z,24.70
2017-07-23T10:40:40.518Z,25.00
2017-07-23T10:43:07.955Z,24.80
2017-07-23T10:45:35.361Z,24.40
2017-07-23T10:48:02.765Z,23.90
2017-07-23T10:50:30.186Z,23.40
2017-07-23T10:52:57.605Z,23.20
2017-07-23T10:55:25.789Z,24.90
2017-07-23T10:57:53.968Z,24.80
2017-07-23T11:00:21.374Z,24.80
2017-07-23T11:02:48.778Z,24.40
2017-07-23T11:05:16.709Z,23.30
2017-07-23T11:07:44.110Z,22.70
2017-07-23T11:10:11.534Z,22.10
2017-07-23T11:12:38.940Z,22.30
2017-07-23T11:15:06.366Z,23.20
2017-07-23T11:17:33.777Z,23.90
2017-07-23T11:20:01.190Z,24.20
2017-07-23T11:22:28.605Z,24.30
2017-07-23T11:24:56.025Z,24.00
2017-07-23T11:27:23.438Z,24.20
2017-07-23T11:29:51.626Z,25.70
2017-07-23T11:32:19.121Z,25.60
2017-07-23T11:34:46.547Z,26.20
2017-07-23T11:37:14.758Z,26.40
2017-07-23T11:39:42.702Z,26.20
2017-07-23T11:42:10.114Z,25.90
2017-07-23T11:44:38.285Z,26.80
2017-07-23T11:47:06.469Z,26.30
2017-07-23T11:49:34.642Z,25.50
2017-07-23T11:52:02.834Z,24.60
2017-07-23T11:54:30.246Z,24.50
2017-07-23T11:56:57.663Z,24.60
2017-07-23T11:59:25.074Z,24.90
2017-07-23T12:01:52.493Z,25.30
2017-07-23T12:04:19.893Z,25.60
2017-07-23T12:06:48.082Z,25.20
2017-07-23T12:09:15.493Z,25.20
2017-07-23T12:11:43.733Z,25.20
2017-07-23T12:14:11.142Z,25.80
2017-07-23T12:16:38.555Z,25.90
2017-07-23T12:19:05.975Z,26.50
2017-07-23T12:21:34.062Z,26.00
2017-07-23T12:24:01.482Z,25.50
2017-07-23T12:26:28.903Z,25.60
2017-07-23T12:28:56.321Z,25.30
2017-07-23T12:31:24.502Z,25.00
2017-07-23T12:33:51.919Z,24.10
2017-07-23T12:36:19.322Z,23.80
2017-07-23T12:38:46.734Z,23.80
2017-07-23T12:41:14.145Z,23.70
2017-07-23T12:43:42.127Z,23.90
2017-07-23T12:46:09.518Z,24.20
2017-07-23T12:48:37.851Z,24.30
2017-07-23T12:51:05.257Z,24.20
2017-07-23T12:53:33.441Z,24.10
2017-07-23T12:56:01.622Z,23.30
2017-07-23T12:58:29.035Z,23.30
2017-07-23T13:00:56.471Z,23.10
2017-07-23T13:03:23.882Z,22.90
2017-07-23T13:05:52.065Z,22.30
2017-07-23T13:08:19.557Z,22.30
2017-07-23T13:10:47.001Z,22.10
2017-07-23T13:13:14.418Z,22.00
2017-07-23T13:15:42.660Z,22.20
2017-07-23T13:18:10.853Z,22.20
2017-07-23T13:20:38.376Z,22.40
2017-07-23T13:23:06.706Z,22.40
2017-07-23T13:25:35.343Z,22.10
2017-07-23T13:28:02.801Z,22.10
2017-07-23T13:30:30.210Z,22.40
2017-07-23T13:32:58.393Z,22.40
2017-07-23T13:35:25.822Z,22.40
2017-07-23T13:37:53.349Z,22.60
2017-07-23T13:40:20.758Z,22.60
2017-07-23T13:42:48.933Z,22.80
2017-07-23T13:45:17.132Z,23.30
2017-07-23T13:47:44.600Z,23.20
2017-07-23T13:50:12.044Z,23.50
2017-07-23T13:52:40.337Z,23.50
2017-07-23T13:55:07.755Z,23.00
2017-07-23T13:57:35.974Z,22.00
2017-07-23T14:00:03.385Z,21.90
2017-07-23T14:02:31.569Z,21.30
2017-07-23T14:04:58.987Z,21.30
2017-07-23T14:07:26.402Z,21.40
2017-07-23T14:09:53.808Z,21.50
2017-07-23T14:12:21.223Z,21.60
2017-07-23T14:14:48.987Z,21.60
2017-07-23T14:17:16.439Z,21.70
2017-07-23T14:19:43.906Z,21.90
2017-07-23T14:22:11.334Z,22.00
2017-07-23T14:24:38.814Z,22.30
2017-07-23T14:27:07.061Z,22.90
2017-07-23T14:29:34.546Z,23.40
2017-07-23T14:32:01.949Z,23.60
2017-07-23T14:34:30.174Z,23.70
2017-07-23T14:36:57.635Z,23.60
2017-07-23T14:39:25.078Z,23.30
2017-07-23T14:41:52.551Z,22.80
2017-07-23T14:44:19.963Z,22.50
2017-07-23T14:46:48.152Z,22.40
2017-07-23T14:49:15.632Z,22.40
2017-07-23T14:51:43.061Z,22.50
2017-07-23T14:54:10.473Z,22.60
2017-07-23T14:56:37.900Z,22.70
2017-07-23T14:59:05.319Z,22.80
2017-07-23T15:01:33.489Z,23.10
2017-07-23T15:04:01.681Z,23.20
2017-07-23T15:06:29.154Z,23.20
2017-07-23T15:08:56.622Z,23.20
2017-07-23T15:11:24.035Z,23.00
2017-07-23T15:13:52.209Z,22.50
2017-07-23T15:16:20.422Z,22.60
2017-07-23T15:18:47.829Z,22.60
2017-07-23T15:21:16.469Z,22.50
2017-07-23T15:23:43.883Z,22.50
2017-07-23T15:26:12.708Z,22.30
2017-07-23T15:28:40.671Z,22.30
2017-07-23T15:31:08.079Z,22.30
2017-07-23T15:33:35.493Z,22.50
2017-07-23T15:36:02.893Z,22.40
2017-07-23T15:38:31.098Z,22.80
2017-07-23T15:40:58.507Z,22.80
2017-07-23T15:43:25.938Z,23.00
2017-07-23T15:45:53.365Z,23.10
2017-07-23T15:48:20.778Z,22.90
2017-07-23T15:50:48.199Z,22.50
2017-07-23T15:53:15.603Z,22.40
2017-07-23T15:55:43.018Z,22.60
2017-07-23T15:58:10.429Z,22.80
2017-07-23T16:00:38.615Z,23.30
2017-07-23T16:03:06.026Z,23.30
2017-07-23T16:05:33.457Z,23.90
2017-07-23T16:08:00.863Z,24.40
2017-07-23T16:10:29.937Z,24.80
2017-07-23T16:12:57.359Z,24.80
2017-07-23T16:15:24.770Z,25.10
2017-07-23T16:17:52.949Z,24.40
2017-07-23T16:20:21.147Z,23.50
2017-07-23T16:22:48.561Z,23.50
2017-07-23T16:25:15.975Z,23.40
2017-07-23T16:27:43.468Z,23.70
2017-07-23T16:30:11.665Z,23.30
2017-07-23T16:32:39.845Z,23.10
2017-07-23T16:35:07.513Z,23.10
2017-07-23T16:37:35.697Z,22.90
2017-07-23T16:40:03.112Z,23.00
2017-07-23T16:42:31.501Z,22.90
2017-07-23T16:44:58.913Z,23.00
2017-07-23T16:47:26.325Z,22.30
2017-07-23T16:49:54.514Z,22.00
2017-07-23T16:52:21.925Z,22.00
2017-07-23T16:54:49.340Z,22.00
2017-07-23T16:57:16.757Z,21.90
2017-07-23T16:59:44.946Z,21.80
2017-07-23T17:02:13.129Z,21.80
2017-07-23T17:04:40.542Z,21.80
2017-07-23T17:07:07.971Z,21.50
2017-07-23T17:09:35.381Z,21.40
2017-07-23T17:12:03.574Z,21.60
2017-07-23T17:14:30.981Z,21.60
2017-07-23T17:16:58.400Z,21.50
2017-07-23T17:19:26.506Z,21.00
2017-07-23T17:21:53.914Z,20.80
2017-07-23T17:24:21.329Z,20.40
2017-07-23T17:26:48.737Z,20.40
2017-07-23T17:29:16.162Z,20.30
2017-07-23T17:31:44.341Z,20.50
2017-07-23T17:34:12.525Z,20.50
2017-07-23T17:36:39.934Z,20.50
2017-07-23T17:39:07.347Z,20.60
2017-07-23T17:41:35.662Z,20.70
2017-07-23T17:44:03.079Z,20.80
2017-07-23T17:46:31.381Z,20.80
2017-07-23T17:48:58.798Z,20.80
2017-07-23T17:51:26.207Z,20.80
2017-07-23T17:53:53.626Z,20.80
2017-07-23T17:56:21.830Z,20.80
2017-07-23T17:58:49.273Z,20.70
2017-07-23T18:01:16.678Z,20.60
2017-07-23T18:03:44.088Z,20.60
2017-07-23T18:06:11.497Z,20.50
2017-07-23T18:08:39.671Z,20.10
2017-07-23T18:11:07.866Z,19.90
2017-07-23T18:13:35.275Z,19.80
2017-07-23T18:16:02.803Z,19.70
2017-07-23T18:18:30.213Z,19.80
2017-07-23T18:20:58.439Z,19.80
2017-07-23T18:23:25.897Z,19.80
2017-07-23T18:25:53.309Z,19.80
2017-07-23T18:28:21.525Z,19.60
2017-07-23T18:30:49.833Z,19.60
2017-07-23T18:33:17.257Z,19.40
2017-07-23T18:35:44.668Z,19.10
2017-07-23T18:38:12.853Z,18.60
2017-07-23T18:40:41.054Z,18.60
2017-07-23T18:43:08.461Z,18.60
2017-07-23T18:45:37.033Z,18.50
2017-07-23T18:48:04.441Z,18.40
2017-07-23T18:50:32.733Z,18.30
2017-07-23T18:53:00.141Z,18.40
2017-07-23T18:55:28.359Z,18.50
2017-07-23T18:57:55.778Z,18.50
2017-07-23T19:00:23.266Z,18.50
2017-07-23T19:02:50.669Z,18.60
2017-07-23T19:05:18.085Z,18.60
2017-07-23T19:07:45.494Z,18.50
2017-07-23T19:10:13.646Z,18.60
2017-07-23T19:12:41.173Z,18.50
2017-07-23T19:15:08.640Z,18.40
2017-07-23T19:17:36.046Z,18.50
2017-07-23T19:20:04.226Z,18.40
2017-07-23T19:22:32.430Z,18.30
2017-07-23T19:24:59.895Z,18.30
2017-07-23T19:27:28.321Z,18.30
2017-07-23T19:29:55.828Z,18.20
2017-07-23T19:32:23.238Z,18.20
2017-07-23T19:34:50.743Z,18.10
2017-07-23T19:37:18.162Z,18.10
2017-07-23T19:39:46.384Z,17.90
2017-07-23T19:42:13.834Z,17.90
2017-07-23T19:44:41.242Z,17.90
2017-07-23T19:47:08.748Z,17.90
2017-07-23T19:49:36.158Z,17.90
2017-07-23T19:52:03.658Z,17.90
2017-07-23T19:54:31.865Z,17.90
2017-07-23T19:56:59.277Z,17.90
2017-07-23T19:59:26.750Z,17.70
2017-07-23T20:01:54.169Z,17.70
2017-07-23T20:04:22.361Z,17.60
2017-07-23T20:06:49.834Z,17.60
2017-07-23T20:09:17.250Z,17.60
2017-07-23T20:11:44.659Z,17.50
2017-07-23T20:14:12.078Z,17.50
2017-07-23T20:16:39.485Z,17.50
2017-07-23T20:19:06.926Z,17.50
2017-07-23T20:21:34.367Z,17.50
2017-07-23T20:24:01.766Z,17.50
2017-07-23T20:26:29.200Z,17.50
2017-07-23T20:28:56.648Z,17.60
2017-07-23T20:31:24.857Z,17.50
2017-07-23T20:33:52.268Z,17.40
2017-07-23T20:36:19.694Z,17.50
2017-07-23T20:38:47.861Z,17.40
2017-07-23T20:41:15.694Z,17.40
2017-07-23T20:43:43.109Z,17.40
2017-07-23T20:46:10.527Z,17.40
2017-07-23T20:48:37.932Z,17.40
2017-07-23T20:51:05.341Z,17.40
2017-07-23T20:53:33.517Z,17.50
2017-07-23T20:56:01.706Z,17.50
2017-07-23T20:58:30.006Z,17.50
2017-07-23T21:00:57.422Z,17.40
2017-07-23T21:03:25.590Z,17.40
2017-07-23T21:05:54.006Z,17.30
2017-07-23T21:08:21.422Z,17.30
2017-07-23T21:10:48.837Z,17.30
2017-07-23T21:13:16.249Z,17.20
2017-07-23T21:15:44.438Z,17.10
2017-07-23T21:18:11.856Z,17.10
2017-07-23T21:20:39.253Z,17.10
2017-07-23T21:23:07.589Z,17.10
2017-07-23T21:25:35.014Z,17.00
2017-07-23T21:28:02.430Z,16.90
2017-07-23T21:30:30.618Z,16.70
2017-07-23T21:32:58.029Z,16.60
2017-07-23T21:35:25.437Z,16.40
2017-07-23T21:37:52.853Z,16.20
2017-07-23T21:40:20.752Z,16.20
2017-07-23T21:42:48.190Z,16.20
2017-07-23T21:45:15.603Z,16.20
2017-07-23T21:47:43.009Z,16.20
2017-07-23T21:50:11.190Z,16.20
2017-07-23T21:52:38.597Z,16.20
2017-07-23T21:55:06.014Z,16.20
2017-07-23T21:57:33.426Z,16.20
2017-07-23T22:00:00.839Z,16.10
2017-07-23T22:02:28.250Z,16.00
2017-07-23T22:04:56.470Z,16.10
2017-07-23T22:07:23.878Z,16.20
2017-07-23T22:09:51.954Z,16.40
2017-07-23T22:12:20.121Z,16.60
2017-07-23T22:14:47.543Z,16.60
2017-07-23T22:17:14.950Z,16.70
2017-07-23T22:19:43.921Z,16.70
2017-07-23T22:22:11.958Z,16.70
2017-07-23T22:24:39.338Z,16.70
2017-07-23T22:27:06.753Z,16.60
2017-07-23T22:29:34.170Z,16.50
2017-07-23T22:32:01.598Z,16.50
2017-07-23T22:34:29.545Z,16.50
2017-07-23T22:36:56.959Z,16.60
2017-07-23T22:39:25.126Z,16.60
2017-07-23T22:41:52.545Z,16.60
2017-07-23T22:44:19.958Z,16.60
2017-07-23T22:46:47.718Z,16.50
2017-07-23T22:49:15.129Z,16.50
2017-07-23T22:51:42.557Z,16.50
2017-07-23T22:54:09.962Z,16.40
2017-07-23T22:56:37.382Z,16.40
2017-07-23T22:59:04.791Z,16.50
2017-07-23T23:01:32.221Z,16.50
2017-07-23T23:04:00.468Z,16.50
2017-07-23T23:06:27.870Z,16.60
2017-07-23T23:08:55.285Z,16.60
2017-07-23T23:11:22.693Z,16.50
2017-07-23T23:13:50.114Z,16.50
2017-07-23T23:16:17.534Z,16.50
2017-07-23T23:18:45.736Z,16.40
2017-07-23T23:21:13.161Z,16.30
2017-07-23T23:23:40.575Z,16.10
2017-07-23T23:26:07.981Z,16.00
2017-07-23T23:28:35.404Z,16.00
2017-07-23T23:31:03.574Z,16.20
2017-07-23T23:33:30.995Z,16.20
2017-07-23T23:35:58.406Z,16.30
2017-07-23T23:38:25.824Z,16.40
2017-07-23T23:40:54.012Z,16.50
2017-07-23T23:43:21.417Z,16.50
2017-07-23T23:45:48.833Z,16.60
2017-07-23T23:48:16.246Z,16.60
2017-07-23T23:50:43.657Z,16.70
2017-07-23T23:53:12.004Z,16.60
2017-07-23T23:55:39.418Z,16.60
2017-07-23T23:58:06.827Z,16.50
